Time;durP1;ratioP1;P1;durP2;ratioP2;P2;SDS_P1;SDS_P2;PMS_P1;PMS_P2;Temp;Humidity;BMP_temperature;BMP_pressure;BME280_temperature;BME280_humidity;BME280_pressure;Samples;Min_cycle;Max_cycle;Signal;HPM_P1;HPM_P2
2024/01/05 00:01:52;;;;;;;2.40;2.20;;;0.60;99.90;;;;;;5072284;28;20039;-78
2024/01/05 00:04:18;;;;;;;2.33;2.13;;;0.60;99.90;;;;;;5072084;28;20029;-78
2024/01/05 00:06:43;;;;;;;2.92;2.15;;;0.60;99.90;;;;;;5054035;28;20016;-76
2024/01/05 00:09:09;;;;;;;2.30;2.20;;;0.60;99.90;;;;;;5072077;28;20032;-78
2024/01/05 00:11:35;;;;;;;4.78;2.97;;;0.60;99.90;;;;;;5058194;28;20025;-78
2024/01/05 00:14:00;;;;;;;2.33;1.80;;;0.60;99.90;;;;;;5053714;28;20111;-76
2024/01/05 00:16:26;;;;;;;1.75;1.65;;;0.70;99.90;;;;;;5070851;28;20025;-78
2024/01/05 00:18:52;;;;;;;2.03;1.60;;;0.60;99.90;;;;;;5071892;28;20009;-77
2024/01/05 00:21:24;;;;;;;1.83;1.73;;;0.60;99.90;;;;;;5054089;28;20082;-78
2024/01/05 00:23:51;;;;;;;3.80;2.30;;;0.60;99.90;;;;;;5072749;28;20024;-78
2024/01/05 00:26:18;;;;;;;2.20;2.00;;;0.70;99.90;;;;;;5054018;28;20020;-78
2024/01/05 00:28:44;;;;;;;1.70;1.60;;;0.60;99.90;;;;;;5071588;28;20115;-78
2024/01/05 00:31:11;;;;;;;1.98;1.60;;;0.60;99.90;;;;;;5057487;28;20092;-76
2024/01/05 00:33:37;;;;;;;3.70;1.88;;;0.60;99.90;;;;;;5057385;28;20062;-76
2024/01/05 00:36:05;;;;;;;3.15;2.85;;;0.60;99.90;;;;;;5057441;28;20539;-78
2024/01/05 00:38:30;;;;;;;2.97;1.88;;;0.60;99.90;;;;;;5057597;28;20055;-78
2024/01/05 00:40:56;;;;;;;1.70;1.60;;;0.60;99.90;;;;;;5074420;28;20051;-79
2024/01/05 00:43:22;;;;;;;2.78;1.95;;;0.50;99.90;;;;;;5075144;28;20595;-79
2024/01/05 00:45:47;;;;;;;1.95;1.70;;;0.50;99.90;;;;;;5060835;28;20021;-78
2024/01/05 00:48:13;;;;;;;3.60;1.73;;;0.50;99.90;;;;;;5075347;28;20474;-78
2024/01/05 00:50:38;;;;;;;2.10;2.00;;;0.50;99.90;;;;;;5075118;28;20386;-78
2024/01/05 00:53:04;;;;;;;2.38;1.50;;;0.50;99.90;;;;;;5057452;28;20031;-77
2024/01/05 00:55:30;;;;;;;2.50;1.70;;;0.50;99.90;;;;;;5057402;28;20021;-78
2024/01/05 00:57:56;;;;;;;1.85;1.70;;;0.50;99.90;;;;;;5050468;28;20544;-77
2024/01/05 01:00:21;;;;;;;1.73;1.48;;;0.50;99.90;;;;;;5048779;28;20390;-77
2024/01/05 01:02:47;;;;;;;1.80;1.70;;;0.50;99.90;;;;;;5075058;28;20102;-78
2024/01/05 01:05:13;;;;;;;2.28;2.03;;;0.50;99.90;;;;;;5056934;28;20024;-79
2024/01/05 01:07:40;;;;;;;2.05;1.90;;;0.60;99.90;;;;;;5075605;28;20028;-77
2024/01/05 01:10:06;;;;;;;2.67;2.08;;;0.60;99.90;;;;;;5057155;28;20040;-78
2024/01/05 01:12:32;;;;;;;3.47;2.20;;;0.50;99.90;;;;;;5056506;28;20024;-79
2024/01/05 01:14:57;;;;;;;3.33;2.17;;;0.50;99.90;;;;;;5056986;28;20020;-78
2024/01/05 01:17:23;;;;;;;2.00;1.90;;;0.50;99.90;;;;;;5056824;28;20139;-78
2024/01/05 01:19:49;;;;;;;2.35;2.15;;;0.50;99.90;;;;;;5045200;28;20383;-78
2024/01/05 01:22:15;;;;;;;1.77;1.67;;;0.50;99.90;;;;;;5074715;28;20017;-77
2024/01/05 01:24:40;;;;;;;2.00;1.90;;;0.50;99.90;;;;;;5074765;28;20406;-77
2024/01/05 01:27:06;;;;;;;3.70;2.00;;;0.50;99.90;;;;;;5073046;28;20016;-78
2024/01/05 01:29:32;;;;;;;2.78;2.40;;;0.50;99.90;;;;;;5074572;28;20264;-77
2024/01/05 01:31:57;;;;;;;1.90;1.80;;;0.50;99.90;;;;;;5074503;28;20025;-77
2024/01/05 01:34:23;;;;;;;2.35;1.90;;;0.50;99.90;;;;;;5074583;28;20016;-79
2024/01/05 01:36:51;;;;;;;2.60;2.05;;;0.50;99.90;;;;;;5056773;28;20051;-78
2024/01/05 01:39:16;;;;;;;1.90;1.70;;;0.40;99.90;;;;;;5057596;28;20021;-78
2024/01/05 01:41:42;;;;;;;1.92;1.60;;;0.40;99.90;;;;;;5051333;28;21085;-77
2024/01/05 01:44:08;;;;;;;1.80;1.70;;;0.40;99.90;;;;;;5056456;28;20069;-77
2024/01/05 01:46:36;;;;;;;2.25;1.83;;;0.40;99.90;;;;;;5072793;28;20040;-76
2024/01/05 01:49:03;;;;;;;2.10;1.90;;;0.50;99.90;;;;;;5048742;28;20036;-77
2024/01/05 01:51:31;;;;;;;2.17;1.80;;;0.40;99.90;;;;;;5055313;28;20554;-77
2024/01/05 01:53:58;;;;;;;2.55;2.33;;;0.40;99.90;;;;;;5056044;28;20482;-78
2024/01/05 01:56:24;;;;;;;1.92;1.70;;;0.40;99.90;;;;;;5055878;28;20388;-78
2024/01/05 01:58:50;;;;;;;1.88;1.77;;;0.40;99.90;;;;;;5074077;28;20025;-78
2024/01/05 02:01:16;;;;;;;2.55;2.35;;;0.40;99.90;;;;;;5073507;28;20099;-78
2024/01/05 02:03:42;;;;;;;2.20;2.00;;;0.40;99.90;;;;;;5055415;28;20048;-78
2024/01/05 02:06:08;;;;;;;1.83;1.73;;;0.40;99.90;;;;;;5071477;28;20017;-77
2024/01/05 02:08:34;;;;;;;2.00;1.80;;;0.40;99.90;;;;;;5061562;28;20040;-78
2024/01/05 02:10:59;;;;;;;3.72;2.25;;;0.40;99.90;;;;;;5073683;28;20020;-77
2024/01/05 02:13:25;;;;;;;2.47;1.88;;;0.40;99.90;;;;;;5073761;28;20099;-77
2024/01/05 02:15:51;;;;;;;2.00;1.85;;;0.40;99.90;;;;;;5055560;28;20442;-78
2024/01/05 02:18:16;;;;;;;2.65;2.45;;;0.40;99.90;;;;;;5073673;28;20475;-78
2024/01/05 02:20:46;;;;;;;2.08;1.75;;;0.30;99.90;;;;;;5073563;28;20048;-77
2024/01/05 02:23:21;;;;;;;2.22;1.77;;;0.30;99.90;;;;;;5073793;28;20039;-78
2024/01/05 02:25:46;;;;;;;2.70;2.50;;;0.30;99.90;;;;;;5055753;28;20470;-77
2024/01/05 02:28:12;;;;;;;2.75;2.08;;;0.30;99.90;;;;;;5081106;28;20178;-78
2024/01/05 02:30:37;;;;;;;3.38;2.70;;;0.30;99.90;;;;;;5055596;28;20016;-77
2024/01/05 02:33:03;;;;;;;2.30;2.13;;;0.30;99.90;;;;;;5055470;28;20505;-78
2024/01/05 02:35:29;;;;;;;2.85;2.58;;;0.30;99.90;;;;;;5073447;28;20165;-78
2024/01/05 02:37:55;;;;;;;4.22;3.15;;;0.40;99.90;;;;;;5055067;28;20016;-78
2024/01/05 02:40:20;;;;;;;3.72;2.00;;;0.30;99.90;;;;;;5055431;28;20024;-77
2024/01/05 02:42:46;;;;;;;2.70;2.50;;;0.30;99.90;;;;;;5073229;28;20504;-77
2024/01/05 02:45:12;;;;;;;4.57;3.38;;;0.30;99.90;;;;;;5055301;28;20028;-78
2024/01/05 02:47:38;;;;;;;4.28;3.00;;;0.30;99.90;;;;;;5072460;28;20437;-77
2024/01/05 02:50:04;;;;;;;3.05;2.63;;;0.30;99.90;;;;;;5072933;28;20040;-78
2024/01/05 02:52:29;;;;;;;3.67;2.50;;;0.30;99.90;;;;;;5072169;28;20482;-77
2024/01/05 02:54:55;;;;;;;3.45;3.13;;;0.30;99.90;;;;;;5073027;28;20035;-78
2024/01/05 02:57:21;;;;;;;3.08;2.78;;;0.30;99.90;;;;;;5072605;28;20096;-79
2024/01/05 02:59:46;;;;;;;5.32;2.88;;;0.30;99.90;;;;;;5054607;28;20032;-78
2024/01/05 03:02:12;;;;;;;4.00;3.20;;;0.30;99.90;;;;;;5054740;28;20177;-77
2024/01/05 03:04:43;;;;;;;2.90;2.53;;;0.30;99.90;;;;;;5062457;28;20024;-77
2024/01/05 03:07:08;;;;;;;3.20;2.90;;;0.30;99.90;;;;;;5058028;28;20028;-77
2024/01/05 03:09:34;;;;;;;2.95;2.65;;;0.30;99.90;;;;;;5054973;28;20036;-78
2024/01/05 03:12:00;;;;;;;3.03;2.47;;;0.30;99.90;;;;;;5054620;28;20028;-78
2024/01/05 03:14:25;;;;;;;5.45;2.83;;;0.30;99.90;;;;;;5054807;28;20024;-77
2024/01/05 03:16:51;;;;;;;4.30;2.83;;;0.30;99.90;;;;;;5059269;28;20024;-78
2024/01/05 03:19:17;;;;;;;2.53;2.33;;;0.30;99.90;;;;;;5054996;28;20111;-78
2024/01/05 03:21:42;;;;;;;3.22;2.90;;;0.30;99.90;;;;;;5072406;28;20021;-78
2024/01/05 03:24:08;;;;;;;3.45;2.80;;;0.20;99.90;;;;;;5055094;28;20028;-77
2024/01/05 03:26:33;;;;;;;4.68;2.97;;;0.20;99.90;;;;;;5054445;28;20025;-78
2024/01/05 03:29:01;;;;;;;14.73;7.43;;;0.20;99.90;;;;;;5072738;28;20413;-77
2024/01/05 03:31:26;;;;;;;44.58;17.63;;;0.20;99.90;;;;;;5072642;28;20106;-76
2024/01/05 03:33:52;;;;;;;11.45;5.20;;;0.20;99.90;;;;;;5054729;28;20399;-77
2024/01/05 03:36:17;;;;;;;13.95;5.50;;;0.10;99.90;;;;;;5054034;28;20035;-77
2024/01/05 03:38:43;;;;;;;3.92;3.03;;;0.10;99.90;;;;;;5072359;28;20431;-78
2024/01/05 03:41:09;;;;;;;3.25;2.92;;;0.10;99.90;;;;;;5054474;28;20025;-78
2024/01/05 03:43:34;;;;;;;6.00;3.60;;;0.10;99.90;;;;;;5054607;28;20027;-78
2024/01/05 03:46:00;;;;;;;416.42;137.95;;;0.00;99.90;;;;;;5072199;28;20017;-77
2024/01/05 03:48:26;;;;;;;361.95;117.72;;;0.10;99.90;;;;;;5071866;28;20033;-77
2024/01/05 03:50:52;;;;;;;69.72;24.45;;;0.10;99.90;;;;;;5071708;28;20035;-77
2024/01/05 03:53:17;;;;;;;193.25;71.15;;;0.20;99.90;;;;;;5054225;28;20382;-77
2024/01/05 03:55:43;;;;;;;41.40;18.48;;;0.10;99.90;;;;;;5071961;28;20032;-77
2024/01/05 03:58:09;;;;;;;87.80;37.38;;;0.10;99.90;;;;;;5053754;28;20021;-77
2024/01/05 04:00:35;;;;;;;46.13;24.60;;;0.10;99.90;;;;;;5072005;28;20100;-77
2024/01/05 04:03:00;;;;;;;7.68;5.68;;;0.10;99.90;;;;;;5054339;28;20104;-77
2024/01/05 04:05:26;;;;;;;5.82;3.00;;;0.10;99.90;;;;;;5074932;28;20079;-77
2024/01/05 04:07:51;;;;;;;3.17;2.88;;;0.10;99.90;;;;;;5058042;28;20055;-77
2024/01/05 04:10:18;;;;;;;3.88;3.45;;;0.10;99.90;;;;;;5075896;28;20545;-78
2024/01/05 04:12:44;;;;;;;4.30;3.17;;;0.10;99.90;;;;;;5052545;28;20052;-77
2024/01/05 04:15:09;;;;;;;4.32;3.28;;;0.10;99.90;;;;;;5071718;28;20029;-77
2024/01/05 04:17:35;;;;;;;4.78;3.03;;;0.10;99.90;;;;;;5058024;28;20017;-78
2024/01/05 04:20:00;;;;;;;10.57;5.10;;;0.00;99.90;;;;;;5076200;28;20077;-78
2024/01/05 04:22:30;;;;;;;12.10;4.70;;;0.10;99.90;;;;;;5058297;28;20024;-77
2024/01/05 04:24:58;;;;;;;11.65;4.85;;;0.10;99.90;;;;;;5057767;28;20459;-79
2024/01/05 04:27:23;;;;;;;3.38;3.05;;;0.10;99.90;;;;;;5057767;28;20028;-78
2024/01/05 04:29:49;;;;;;;34.45;14.20;;;0.00;99.90;;;;;;5057753;28;20035;-78
2024/01/05 04:32:14;;;;;;;54.08;25.40;;;0.10;99.90;;;;;;5075597;28;20041;-78
2024/01/05 04:34:40;;;;;;;58.15;34.80;;;0.00;99.90;;;;;;5075601;28;20467;-78
2024/01/05 04:37:06;;;;;;;13.15;7.95;;;0.00;99.90;;;;;;5057775;28;20024;-78
2024/01/05 04:39:31;;;;;;;6.72;4.32;;;0.10;99.90;;;;;;5074069;28;20028;-78
2024/01/05 04:41:58;;;;;;;13.07;8.00;;;0.00;99.90;;;;;;5057729;28;20490;-78
2024/01/05 04:44:24;;;;;;;8.68;5.10;;;0.00;99.90;;;;;;5075674;28;20114;-78
2024/01/05 04:46:49;;;;;;;11.35;8.98;;;0.10;99.90;;;;;;5057739;28;20382;-78
2024/01/05 04:49:15;;;;;;;7.95;5.35;;;0.10;99.90;;;;;;5075093;28;20123;-78
2024/01/05 04:51:40;;;;;;;6.75;4.65;;;0.10;99.90;;;;;;5057375;28;20107;-78
2024/01/05 04:54:06;;;;;;;5.05;4.18;;;0.00;99.90;;;;;;5057497;28;20115;-78
2024/01/05 04:56:32;;;;;;;10.40;5.68;;;0.00;99.90;;;;;;5057373;28;20019;-78
2024/01/05 04:58:57;;;;;;;27.77;13.18;;;0.10;99.90;;;;;;5075524;28;20394;-78
2024/01/05 05:01:23;;;;;;;32.80;14.20;;;0.00;99.90;;;;;;5074265;28;20020;-78
2024/01/05 05:03:49;;;;;;;18.08;8.95;;;0.00;99.90;;;;;;5075212;28;20107;-78
2024/01/05 05:06:15;;;;;;;41.17;18.58;;;0.00;99.90;;;;;;5057537;28;20023;-78
2024/01/05 05:08:40;;;;;;;23.38;12.95;;;0.00;99.90;;;;;;5059086;28;20037;-78
2024/01/05 05:11:06;;;;;;;8.18;5.22;;;0.00;99.90;;;;;;5057231;28;20363;-78
2024/01/05 05:13:31;;;;;;;5.60;4.72;;;0.00;99.90;;;;;;5056572;28;20024;-78
2024/01/05 05:15:57;;;;;;;4.85;4.20;;;0.00;99.90;;;;;;5056386;28;20020;-77
2024/01/05 05:18:23;;;;;;;5.45;3.80;;;0.00;99.90;;;;;;5073614;28;20021;-77
2024/01/05 05:20:48;;;;;;;7.70;4.03;;;0.00;99.90;;;;;;5057186;28;20021;-78
2024/01/05 05:23:14;;;;;;;3.85;3.00;;;0.00;99.90;;;;;;5074424;28;20031;-78
2024/01/05 05:25:40;;;;;;;6.55;3.50;;;0.00;99.90;;;;;;5056757;28;20023;-78
2024/01/05 05:28:06;;;;;;;5.20;3.22;;;0.00;99.90;;;;;;5056741;28;20459;-78
2024/01/05 05:30:32;;;;;;;4.43;3.53;;;0.10;99.90;;;;;;5056756;28;20024;-78
2024/01/05 05:32:57;;;;;;;4.43;3.15;;;0.10;99.90;;;;;;5056462;28;20512;-78
2024/01/05 05:35:23;;;;;;;3.95;3.55;;;0.00;99.90;;;;;;5056699;28;20111;-79
2024/01/05 05:37:49;;;;;;;3.67;3.25;;;0.00;99.90;;;;;;5074678;28;20536;-78
2024/01/05 05:40:14;;;;;;;6.30;3.78;;;0.00;99.90;;;;;;5057180;28;20046;-77
2024/01/05 05:42:40;;;;;;;3.65;2.80;;;0.10;99.90;;;;;;5074403;28;20021;-78
2024/01/05 05:45:06;;;;;;;4.78;3.03;;;0.10;99.90;;;;;;5074731;28;20063;-78
2024/01/05 05:47:32;;;;;;;4.43;2.90;;;0.10;99.90;;;;;;5051779;28;20036;-78
2024/01/05 05:49:58;;;;;;;2.85;2.60;;;0.10;99.90;;;;;;5073940;28;20054;-77
2024/01/05 05:52:23;;;;;;;3.47;3.17;;;0.10;99.90;;;;;;5074259;28;20020;-78
2024/01/05 05:54:49;;;;;;;2.75;2.55;;;0.10;99.90;;;;;;5055729;28;20482;-78
2024/01/05 05:57:14;;;;;;;2.90;2.70;;;0.10;99.90;;;;;;5056016;28;20103;-78
2024/01/05 05:59:40;;;;;;;5.82;3.08;;;0.10;99.90;;;;;;5077228;28;20052;-78
2024/01/05 06:02:06;;;;;;;3.00;2.70;;;0.10;99.90;;;;;;5073562;28;20020;-77
2024/01/05 06:04:31;;;;;;;4.75;3.20;;;0.00;99.90;;;;;;5056240;28;20047;-77
2024/01/05 06:06:57;;;;;;;4.45;4.05;;;0.00;99.90;;;;;;5054990;28;20123;-78
2024/01/05 06:09:23;;;;;;;4.65;3.83;;;0.00;99.90;;;;;;5073523;28;20036;-78
2024/01/05 06:11:48;;;;;;;5.72;3.45;;;0.00;99.90;;;;;;5055877;28;20021;-77
2024/01/05 06:14:14;;;;;;;4.32;3.15;;;0.00;99.90;;;;;;5072843;28;20050;-77
2024/01/05 06:16:39;;;;;;;3.90;3.42;;;0.00;99.90;;;;;;5055669;28;20390;-77
2024/01/05 06:19:05;;;;;;;3.80;3.45;;;0.00;99.90;;;;;;5055704;28;20413;-78
2024/01/05 06:21:31;;;;;;;4.47;3.45;;;0.00;99.90;;;;;;5055522;28;20020;-79
2024/01/05 06:23:56;;;;;;;4.00;3.05;;;0.10;99.90;;;;;;5055171;28;20062;-79
2024/01/05 06:26:22;;;;;;;4.70;3.55;;;0.00;99.90;;;;;;5070981;28;20496;-78
2024/01/05 06:28:47;;;;;;;4.63;3.47;;;0.10;99.90;;;;;;5071718;28;20040;-78
2024/01/05 06:31:14;;;;;;;4.00;3.60;;;0.10;99.90;;;;;;5072339;28;20082;-78
2024/01/05 06:33:39;;;;;;;4.07;3.75;;;0.10;99.90;;;;;;5073482;28;20054;-78
2024/01/05 06:36:06;;;;;;;6.07;3.72;;;0.10;99.90;;;;;;5055129;28;20028;-78
2024/01/05 06:38:32;;;;;;;3.42;2.95;;;0.20;99.90;;;;;;5055033;28;20025;-79
2024/01/05 06:40:57;;;;;;;4.97;3.30;;;0.20;99.90;;;;;;5054930;28;20028;-78
2024/01/05 06:43:23;;;;;;;5.05;3.83;;;0.20;99.90;;;;;;5072927;28;20028;-78
2024/01/05 06:45:49;;;;;;;4.47;3.58;;;0.30;99.90;;;;;;5072732;28;20425;-79
2024/01/05 06:48:14;;;;;;;5.38;3.47;;;0.30;99.90;;;;;;5071397;28;20070;-78
2024/01/05 06:50:40;;;;;;;4.18;3.35;;;0.10;99.90;;;;;;5054795;28;20032;-78
2024/01/05 06:53:06;;;;;;;5.35;3.67;;;0.10;99.90;;;;;;5055187;28;20489;-78
2024/01/05 06:55:32;;;;;;;5.80;3.20;;;0.10;99.90;;;;;;5070245;28;20386;-79
2024/01/05 06:57:57;;;;;;;5.65;3.33;;;0.10;99.90;;;;;;5072782;28;20031;-78
2024/01/05 07:00:23;;;;;;;4.60;3.17;;;0.20;99.90;;;;;;5063306;28;20501;-78
2024/01/05 07:02:49;;;;;;;5.93;3.70;;;0.20;99.90;;;;;;5054089;28;20016;-77
2024/01/05 07:05:14;;;;;;;4.28;3.58;;;0.20;99.90;;;;;;5054160;28;20420;-77
2024/01/05 07:07:42;;;;;;;8.85;4.30;;;0.20;99.90;;;;;;5070865;28;20034;-79
2024/01/05 07:10:08;;;;;;;5.65;3.65;;;0.20;99.90;;;;;;5052595;28;20076;-79
2024/01/05 07:12:34;;;;;;;6.20;4.50;;;0.20;99.90;;;;;;5052473;28;20020;-79
2024/01/05 07:15:00;;;;;;;3.58;3.15;;;0.20;99.90;;;;;;5051775;28;20090;-79
2024/01/05 07:17:26;;;;;;;5.45;3.50;;;0.20;99.90;;;;;;5069398;28;20024;-77
2024/01/05 07:19:51;;;;;;;6.55;4.35;;;0.20;99.90;;;;;;5051675;28;20028;-77
2024/01/05 07:22:17;;;;;;;4.47;3.20;;;0.20;99.90;;;;;;5051522;28;20516;-79
2024/01/05 07:24:43;;;;;;;4.47;3.85;;;0.30;99.90;;;;;;5051429;28;20063;-79
2024/01/05 07:27:10;;;;;;;6.10;3.80;;;0.30;99.90;;;;;;5051389;28;20017;-77
2024/01/05 07:29:36;;;;;;;6.57;3.83;;;0.40;99.90;;;;;;5051904;28;20040;-79
2024/01/05 07:32:02;;;;;;;5.88;3.53;;;0.30;99.90;;;;;;5071450;28;20424;-78
2024/01/05 07:34:27;;;;;;;7.88;4.55;;;0.40;99.90;;;;;;5078235;28;20024;-79
2024/01/05 07:36:53;;;;;;;6.75;3.30;;;0.40;99.90;;;;;;5070860;28;20052;-79
2024/01/05 07:39:19;;;;;;;7.13;3.45;;;0.40;99.90;;;;;;5071909;28;20100;-77
2024/01/05 07:41:45;;;;;;;9.10;3.75;;;0.50;99.90;;;;;;5072283;28;20019;-77
2024/01/05 07:44:11;;;;;;;3.75;3.45;;;0.50;99.90;;;;;;5054190;28;20017;-78
2024/01/05 07:46:42;;;;;;;4.20;3.28;;;0.50;99.90;;;;;;5054514;28;20024;-78
2024/01/05 07:49:09;;;;;;;8.07;4.33;;;0.60;99.90;;;;;;5072440;28;20036;-77
2024/01/05 07:51:35;;;;;;;5.15;3.97;;;0.50;99.90;;;;;;5054530;28;20497;-79
2024/01/05 07:54:01;;;;;;;4.82;3.75;;;0.50;99.90;;;;;;5054377;28;20037;-77
2024/01/05 07:56:26;;;;;;;3.85;3.47;;;0.60;99.90;;;;;;5072304;28;20028;-78
2024/01/05 07:58:52;;;;;;;4.75;3.75;;;0.60;99.90;;;;;;5081040;28;20032;-77
2024/01/05 08:01:19;;;;;;;6.40;3.60;;;0.60;99.90;;;;;;5054200;28;20039;-80
2024/01/05 08:03:45;;;;;;;5.25;4.05;;;0.60;99.90;;;;;;5071994;28;20401;-79
2024/01/05 08:06:17;;;;;;;6.43;3.75;;;0.70;99.90;;;;;;5072516;28;20016;-77
2024/01/05 08:08:47;;;;;;;;;;;0.70;99.90;;;;;;5072190;28;20040;-78
2024/01/05 08:11:15;;;;;;;3.92;3.10;;;0.60;99.90;;;;;;5072215;28;19904;-77
2024/01/05 08:13:44;;;;;;;6.53;4.70;;;0.60;99.90;;;;;;5054053;28;20070;-77
2024/01/05 08:16:10;;;;;;;5.07;4.13;;;0.60;99.90;;;;;;5054207;28;20082;-77
2024/01/05 08:18:37;;;;;;;5.15;3.42;;;0.60;99.90;;;;;;5072021;28;20032;-77
2024/01/05 08:21:03;;;;;;;6.95;4.18;;;0.60;99.90;;;;;;5072141;28;20040;-78
2024/01/05 08:23:30;;;;;;;8.43;4.13;;;0.60;99.90;;;;;;5071779;28;20428;-79
2024/01/05 08:25:55;;;;;;;8.52;5.45;;;0.60;99.90;;;;;;5054158;28;20017;-77
2024/01/05 08:28:21;;;;;;;9.18;5.97;;;0.50;99.90;;;;;;5072420;28;20401;-77
2024/01/05 08:30:46;;;;;;;7.72;5.03;;;0.50;99.90;;;;;;5072133;28;20021;-77
2024/01/05 08:33:12;;;;;;;7.13;4.70;;;0.60;99.90;;;;;;5053588;28;20047;-78
2024/01/05 08:35:38;;;;;;;7.00;4.97;;;0.60;99.90;;;;;;5072102;28;20021;-78
2024/01/05 08:38:04;;;;;;;8.20;4.72;;;0.60;99.90;;;;;;5053987;28;20059;-77
2024/01/05 08:40:30;;;;;;;7.30;5.38;;;0.60;99.90;;;;;;5071951;28;20028;-79
2024/01/05 08:42:56;;;;;;;8.98;4.60;;;0.70;99.90;;;;;;5053872;28;20020;-78
2024/01/05 08:45:22;;;;;;;6.28;4.60;;;0.70;99.90;;;;;;5071727;28;20154;-79
2024/01/05 08:47:48;;;;;;;8.05;4.80;;;0.70;99.90;;;;;;5071563;28;20478;-77
2024/01/05 08:50:16;;;;;;;8.32;4.82;;;0.70;99.90;;;;;;5054357;28;20106;-78
2024/01/05 08:52:43;;;;;;;8.48;4.88;;;0.70;99.90;;;;;;5057259;28;20476;-78
2024/01/05 08:55:09;;;;;;;7.50;4.47;;;0.70;99.90;;;;;;5075162;28;20101;-77
2024/01/05 08:57:35;;;;;;;6.80;4.38;;;0.60;99.90;;;;;;5056934;28;20113;-80
2024/01/05 09:00:01;;;;;;;6.45;4.45;;;0.70;99.90;;;;;;5076419;28;20386;-79
2024/01/05 09:02:27;;;;;;;7.88;4.40;;;0.70;99.90;;;;;;5074759;28;20035;-77
2024/01/05 09:04:52;;;;;;;4.93;3.40;;;0.60;99.90;;;;;;5065206;28;20093;-78
2024/01/05 09:07:19;;;;;;;10.07;4.47;;;0.60;99.90;;;;;;5077183;28;20031;-77
2024/01/05 09:09:45;;;;;;;5.07;4.05;;;0.70;99.90;;;;;;5056928;28;20122;-79
2024/01/05 09:12:11;;;;;;;5.45;4.32;;;0.70;99.90;;;;;;5056957;28;20029;-78
2024/01/05 09:14:37;;;;;;;5.25;4.03;;;0.70;99.90;;;;;;5056845;28;20383;-78
2024/01/05 09:17:05;;;;;;;8.25;3.72;;;0.70;99.90;;;;;;5056951;28;20024;-79
2024/01/05 09:19:32;;;;;;;7.47;4.63;;;0.70;99.90;;;;;;5057215;28;20071;-78
2024/01/05 09:21:59;;;;;;;6.35;4.18;;;0.70;99.90;;;;;;5074986;28;20043;-78
2024/01/05 09:24:25;;;;;;;5.45;3.70;;;0.70;99.90;;;;;;5056915;28;20562;-77
2024/01/05 09:26:50;;;;;;;5.88;3.92;;;0.80;99.90;;;;;;5073741;28;20103;-79
2024/01/05 09:29:16;;;;;;;4.50;3.70;;;0.80;99.90;;;;;;5050141;28;20051;-76
2024/01/05 09:31:46;;;;;;;6.55;4.43;;;0.80;99.90;;;;;;5074669;28;20028;-79
2024/01/05 09:34:12;;;;;;;3.90;3.22;;;0.80;99.90;;;;;;5056108;28;20461;-79
2024/01/05 09:36:41;;;;;;;5.97;3.58;;;0.90;99.90;;;;;;5056194;28;20024;-79
2024/01/05 09:39:07;;;;;;;5.68;3.58;;;0.90;99.90;;;;;;5056655;28;20024;-77
2024/01/05 09:41:33;;;;;;;6.10;3.85;;;1.00;99.90;;;;;;5074532;28;20043;-77
2024/01/05 09:44:00;;;;;;;5.00;4.05;;;1.00;99.90;;;;;;5074226;28;20021;-77
2024/01/05 09:46:28;;;;;;;7.20;4.13;;;1.00;99.90;;;;;;5074303;28;20482;-76
2024/01/05 09:49:01;;;;;;;4.90;3.78;;;1.00;99.90;;;;;;5074228;28;20036;-79
2024/01/05 09:51:30;;;;;;;8.90;4.35;;;1.10;99.90;;;;;;5074380;28;20029;-79
2024/01/05 09:53:55;;;;;;;4.80;3.65;;;1.10;99.90;;;;;;5074231;28;20021;-79
2024/01/05 09:56:23;;;;;;;6.28;4.22;;;1.20;99.90;;;;;;5073791;28;20576;-76
2024/01/05 09:58:51;;;;;;;5.95;4.32;;;1.30;99.90;;;;;;5054753;28;20378;-77
2024/01/05 10:01:25;;;;;;;7.50;4.57;;;1.20;99.90;;;;;;5073730;28;20013;-77
2024/01/05 10:04:12;;;;;;;7.15;4.10;;;1.20;99.90;;;;;;5073922;28;20127;-77
2024/01/05 10:06:37;;;;;;;6.25;3.78;;;1.30;99.90;;;;;;5055593;28;20115;-77
2024/01/05 10:09:05;;;;;;;9.15;5.40;;;1.40;99.90;;;;;;5073777;28;20048;-79
2024/01/05 10:11:35;;;;;;;7.45;4.28;;;1.40;99.90;;;;;;5073608;28;20036;-77
2024/01/05 10:14:05;;;;;;;12.20;5.38;;;1.30;99.90;;;;;;5061989;28;20025;-78
2024/01/05 10:16:36;;;;;;;6.45;4.80;;;1.30;99.90;;;;;;5065277;28;20107;-79
2024/01/05 10:19:16;;;;;;;9.57;6.13;;;1.30;99.90;;;;;;5073602;28;20025;-79
2024/01/05 10:21:47;;;;;;;16.77;6.90;;;1.30;99.90;;;;;;5055760;28;20122;-78
2024/01/05 10:24:27;;;;;;;12.45;6.60;;;1.30;99.90;;;;;;5055428;28;20017;-77
2024/01/05 10:27:12;;;;;;;16.77;7.45;;;1.30;99.90;;;;;;5072028;28;21120;-76
2024/01/05 10:29:43;;;;;;;16.20;8.45;;;1.30;99.90;;;;;;5054675;28;20040;-77
2024/01/05 10:32:13;;;;;;;17.90;8.50;;;1.30;99.90;;;;;;5072576;28;20489;-77
2024/01/05 10:34:47;;;;;;;17.15;8.23;;;1.30;99.90;;;;;;5071618;28;20020;-77
2024/01/05 10:37:14;;;;;;;17.92;8.48;;;1.30;99.90;;;;;;5072033;28;20158;-77
2024/01/05 10:39:51;;;;;;;13.52;8.55;;;1.30;99.90;;;;;;5053529;28;20104;-77
2024/01/05 10:42:21;;;;;;;13.98;8.43;;;1.20;99.90;;;;;;5071035;28;20033;-77
2024/01/05 10:44:51;;;;;;;15.63;8.07;;;1.30;99.90;;;;;;5053669;28;20027;-77
2024/01/05 10:47:18;;;;;;;16.85;8.23;;;1.30;99.90;;;;;;5054481;28;20482;-76
2024/01/05 10:49:49;;;;;;;19.52;8.68;;;1.40;99.90;;;;;;5071537;28;20211;-77
2024/01/05 10:52:19;;;;;;;12.35;7.38;;;1.40;99.90;;;;;;5071902;28;20031;-77
2024/01/05 10:54:50;;;;;;;13.73;8.63;;;1.40;99.90;;;;;;5070027;28;20067;-76
2024/01/05 10:57:16;;;;;;;15.98;8.38;;;1.40;99.90;;;;;;5071356;28;20576;-78
2024/01/05 10:59:49;;;;;;;18.38;9.40;;;1.40;99.90;;;;;;5071544;28;20025;-77
2024/01/05 11:02:27;;;;;;;17.95;10.45;;;1.40;99.90;;;;;;5046669;28;20025;-77
2024/01/05 11:05:11;;;;;;;19.20;9.27;;;1.50;99.90;;;;;;5064375;28;20037;-77
2024/01/05 11:07:38;;;;;;;17.55;8.27;;;1.60;99.90;;;;;;5050499;28;20020;-77
2024/01/05 11:10:31;;;;;;;14.38;7.97;;;1.70;99.90;;;;;;5052804;28;20109;-78
2024/01/05 11:13:03;;;;;;;15.52;8.82;;;1.70;99.90;;;;;;5053430;28;20054;-77
2024/01/05 11:15:28;;;;;;;17.35;8.73;;;1.80;99.90;;;;;;5053845;28;20024;-78
2024/01/05 11:18:29;;;;;;;18.30;8.95;;;1.80;99.90;;;;;;5071946;28;20036;-77
2024/01/05 11:21:21;;;;;;;13.75;8.95;;;1.80;99.90;;;;;;5062424;28;20032;-77
2024/01/05 11:23:49;;;;;;;16.95;10.52;;;1.70;99.90;;;;;;5072280;28;20013;-77
2024/01/05 11:26:35;;;;;;;15.55;8.50;;;1.70;99.90;;;;;;5054196;28;20059;-77
2024/01/05 11:29:04;;;;;;;19.05;9.23;;;1.70;99.90;;;;;;5054378;28;20039;-79
2024/01/05 11:31:45;;;;;;;18.48;9.55;;;1.80;99.90;;;;;;5062471;28;20028;-78
2024/01/05 11:34:30;;;;;;;17.02;9.00;;;1.70;99.90;;;;;;5067168;28;20059;-79
2024/01/05 11:36:57;;;;;;;18.88;9.43;;;1.80;99.90;;;;;;5068221;28;20024;-76
2024/01/05 11:39:48;;;;;;;19.42;9.15;;;1.80;99.90;;;;;;5070910;28;20464;-78
2024/01/05 11:42:33;;;;;;;18.70;10.13;;;1.80;99.90;;;;;;5046236;28;20017;-77
2024/01/05 11:45:13;;;;;;;18.40;10.77;;;1.90;99.90;;;;;;5052389;28;20384;-77
2024/01/05 11:47:41;;;;;;;20.50;11.35;;;1.90;99.90;;;;;;5047407;28;20024;-77
2024/01/05 11:50:26;;;;;;;16.55;9.15;;;2.00;99.90;;;;;;5053910;28;20028;-78
2024/01/05 11:53:19;;;;;;;16.85;8.68;;;2.00;99.90;;;;;;5049303;28;20111;-77
2024/01/05 11:55:47;;;;;;;19.08;10.27;;;1.90;99.90;;;;;;5071463;28;20031;-78
2024/01/05 11:58:17;;;;;;;16.42;8.50;;;1.90;99.90;;;;;;5053775;28;20506;-77
2024/01/05 12:00:44;;;;;;;17.38;8.35;;;2.00;99.90;;;;;;5053355;28;20029;-77
2024/01/05 12:03:10;;;;;;;13.32;7.68;;;2.00;99.90;;;;;;5071244;28;20478;-77
2024/01/05 12:05:38;;;;;;;17.00;9.30;;;2.00;99.90;;;;;;5050638;28;20035;-78
2024/01/05 12:08:05;;;;;;;15.00;8.43;;;2.00;99.90;;;;;;5052996;28;20033;-77
2024/01/05 12:10:31;;;;;;;14.30;9.15;;;2.00;99.90;;;;;;5055633;28;20491;-78
2024/01/05 12:12:57;;;;;;;16.65;9.10;;;2.00;99.90;;;;;;5061929;28;20071;-78
2024/01/05 12:15:24;;;;;;;17.58;9.88;;;2.00;99.90;;;;;;5077037;28;20482;-78
2024/01/05 12:18:00;;;;;;;16.02;8.82;;;2.00;99.90;;;;;;5050312;28;20029;-78
2024/01/05 12:20:25;;;;;;;15.25;9.77;;;2.00;99.90;;;;;;5052469;28;20036;-79
2024/01/05 12:22:51;;;;;;;13.15;8.65;;;1.90;99.90;;;;;;5070966;28;20463;-79
2024/01/05 12:25:17;;;;;;;18.40;8.80;;;1.90;99.90;;;;;;5071872;28;20045;-79
2024/01/05 12:27:43;;;;;;;18.88;9.20;;;1.90;99.90;;;;;;5064720;28;20138;-77
2024/01/05 12:30:11;;;;;;;14.70;8.25;;;1.90;99.90;;;;;;5073080;28;20432;-77
2024/01/05 12:32:37;;;;;;;19.90;9.68;;;1.90;99.90;;;;;;5072918;28;20521;-78
2024/01/05 12:35:04;;;;;;;17.05;9.75;;;1.90;99.90;;;;;;5051852;28;20029;-79
2024/01/05 12:37:31;;;;;;;18.25;9.57;;;1.90;99.90;;;;;;5066251;28;20025;-79
2024/01/05 12:40:10;;;;;;;14.93;8.98;;;2.00;99.90;;;;;;5056551;28;20099;-79
2024/01/05 12:42:40;;;;;;;12.70;7.57;;;2.00;99.90;;;;;;5056335;28;20025;-79
2024/01/05 12:45:10;;;;;;;16.63;8.50;;;2.10;99.90;;;;;;5056052;28;20462;-79
2024/01/05 12:47:36;;;;;;;12.80;8.35;;;2.20;99.90;;;;;;5073755;28;20035;-79
2024/01/05 12:50:07;;;;;;;20.75;9.32;;;2.10;99.90;;;;;;5056579;28;20037;-79
2024/01/05 12:52:34;;;;;;;20.30;9.32;;;2.10;99.90;;;;;;5074690;28;20035;-79
2024/01/05 12:54:59;;;;;;;16.33;9.48;;;2.10;99.90;;;;;;5057136;28;20055;-80